Hovedside
METAR-TAF:

METAR-TAF

Lufthavner :

Simón Bolívar internasjonale lufthavn

Caracas, Venezuela

breddegrad: 10-36N, lengdegrad: 066-59W, høyde over havet: 43 m

Gjeldene værobservasjon

Denne rapporten ble laget for 1 time og 2 minutter siden, klokken 03:00 UTC
Flau vind
Temperatur 26°C
Luftfuktighet 84%
Trykk
Sikt: 1013 m
Få skyer i en høyde av 1600 ft

METAR: SVMI 200300Z 00000KT 9999 FEW016 26/23 1013

Tid: 00:02 (04:02 UTC)

Varsel

Denne rapporten ble laget for 6 timer og 2 minutter siden, klokken 22:00 UTC
Varsel gyldig fra 20. klokken 00 UTC til 21. klokken 00 UTC
Vind 4 kt fra Øst
Sikt 10 km eller mer
Få skyer i en høyde av 1600 ft
Blir
fra 20. klokken 04 UTC til 20. klokken 08 UTC
Vind 8 kt fra Øst
Få skyer i en høyde av 1600 ft
Spredte skyer i en høyde av 10000 ft

TAF: SVMI 192200Z 2000/2100 09004KT 9999 FEW016 TX33/18Z TN25/09Z BECMG 2004/2008 09008KT FEW016 SCT100

Værobservasjoner og værvarsel for over 4000 flyplasser (METAR- og TAF-rapporter).

Tilgjengelige stasjoner er representert av de røde og gule prikkene på kartet.

Hold musepekeren over prikken for å se navnet på stasjonen.

Klikk så for å se værobservasjoner og -varsler.

For å forandre kartet kan du klikke på den grønne knappen med svart kryss for å zoome inn, på den grønne knappen med strek for å zoome ut, eller på de grønne pilene for å se tilstøtende kart.


METAR-TAF: